»·PEaware :: N701GT KIFP-KPSP

N701GT :: KIFP-KPSP

FLIGHT INFORMATION

Flight Status: Arrived
Operator: Privately registered:
United States
More flights under this callsign
Pilot: Greg L. (17564)
Aircraft: CESSNA 310
(C310)
More flights by this aircraft type
Origin: KIFP Laughlin/Bullhead Intl
United States
Destination: KPSP Palm Springs Intl
United States
More flights between these airports :: More routes between these airports
Route: +EED CLOWD1
File this flight plan on PilotEdge
Remarks:
Altitude:
(Current/Filed)
20,000ft
Speed:
(Current/Filed)
160kts
Departed: 23-Jun-18 07:34 PM
Arrived: 23-Jun-18 08:35 PM
Distance/Time
Traveled:
125nm/1:01
Distance/Time
To Go:
Arrived

Flight Plot

Page will automatically refresh every two minutes.


Map Options




Map Legend


Flown Route
Filed Route
Departure Airport
Arrival Airport
Navaid (VOR, NDB)
Fix

Horizontal Profiles

Position Reports

Time Latitude Longitude Heading Altitude Ground
Speed
23-Jun-18 19:15 35.159660 -114.556341 264 644ft 0kts
23-Jun-18 19:16 35.159660 -114.556341 264 644ft 0kts
23-Jun-18 19:17 35.159660 -114.556341 264 644ft 0kts
23-Jun-18 19:18 35.159660 -114.556341 264 644ft 0kts
23-Jun-18 19:19 35.159660 -114.556341 264 644ft 0kts
23-Jun-18 19:20 35.159660 -114.556341 264 644ft 0kts
23-Jun-18 19:21 35.159660 -114.556341 264 644ft 0kts
23-Jun-18 19:22 35.159660 -114.556341 264 644ft 0kts
23-Jun-18 19:23 35.159660 -114.556341 264 644ft 0kts
23-Jun-18 19:24 35.159660 -114.556341 264 644ft 0kts
23-Jun-18 19:25 35.159660 -114.556341 264 644ft 0kts
23-Jun-18 19:26 35.159660 -114.556341 264 644ft 0kts
23-Jun-18 19:27 35.159660 -114.556341 264 644ft 0kts
23-Jun-18 19:28 35.159660 -114.556341 264 644ft 0kts
23-Jun-18 19:29 35.159418 -114.557918 263 644ft 7kts
23-Jun-18 19:30 35.161402 -114.558525 357 644ft 10kts
23-Jun-18 19:31 35.165950 -114.558858 352 644ft 17kts
23-Jun-18 19:32 35.166192 -114.559090 268 644ft 0kts
23-Jun-18 19:33 35.166192 -114.559090 268 644ft 0kts
23-Jun-18 19:34 35.163865 -114.560047 177 644ft 61kts
23-Jun-18 19:35 35.133971 -114.556880 171 1541ft 129kts
23-Jun-18 19:36 35.097140 -114.551134 175 2750ft 134kts
23-Jun-18 19:37 35.061238 -114.544955 174 3951ft 127kts
23-Jun-18 19:38 35.026778 -114.536535 172 5053ft 131kts
23-Jun-18 19:39 34.989998 -114.526972 173 6045ft 137kts
23-Jun-18 19:40 34.946360 -114.516959 172 6043ft 173kts
23-Jun-18 19:41 34.899656 -114.505543 172 6490ft 158kts
23-Jun-18 19:42 34.858517 -114.499235 177 7446ft 142kts
23-Jun-18 19:43 34.819358 -114.491419 172 8292ft 143kts
23-Jun-18 19:44 34.788695 -114.506438 264 9086ft 147kts
23-Jun-18 19:45 34.810755 -114.550557 296 9869ft 154kts
23-Jun-18 19:46 34.803710 -114.586143 194 10643ft 140kts
23-Jun-18 19:47 34.763342 -114.593821 192 11180ft 151kts
23-Jun-18 19:48 34.720978 -114.601312 191 11685ft 155kts
23-Jun-18 19:49 34.679139 -114.611196 211 12269ft 147kts
23-Jun-18 19:50 34.653277 -114.646060 238 12959ft 135kts
23-Jun-18 19:51 34.631995 -114.682985 235 13643ft 131kts
23-Jun-18 19:52 34.609393 -114.717484 234 14241ft 130kts
23-Jun-18 19:53 34.586957 -114.751579 235 14832ft 128kts
23-Jun-18 19:54 34.564839 -114.785977 235 15351ft 130kts
23-Jun-18 19:55 34.542506 -114.820717 236 15849ft 130kts
23-Jun-18 19:56 34.520149 -114.855321 236 16340ft 129kts
23-Jun-18 19:57 34.497966 -114.889512 236 16803ft 129kts
23-Jun-18 19:58 34.475670 -114.923994 236 17202ft 130kts
23-Jun-18 19:59 34.453405 -114.958363 236 17593ft 128kts
23-Jun-18 20:00 34.431542 -114.992047 236 17976ft 126kts
23-Jun-18 20:01 34.409732 -115.025683 236 18280ft 127kts
23-Jun-18 20:02 34.387875 -115.059450 236 18559ft 128kts
23-Jun-18 20:03 34.362792 -115.099164 236 18101ft 166kts
23-Jun-18 20:04 34.333054 -115.145973 234 17523ft 181kts
23-Jun-18 20:05 34.301110 -115.194602 233 16665ft 187kts
23-Jun-18 20:06 34.268058 -115.244056 233 15768ft 190kts
23-Jun-18 20:07 34.235013 -115.294330 234 14867ft 191kts
23-Jun-18 20:08 34.202193 -115.344886 234 13967ft 191kts
23-Jun-18 20:09 34.169404 -115.395548 234 13070ft 192kts
23-Jun-18 20:10 34.136909 -115.446898 235 12169ft 192kts
23-Jun-18 20:11 34.103176 -115.497296 230 11269ft 192kts
23-Jun-18 20:12 34.068823 -115.544166 229 11022ft 179kts
23-Jun-18 20:13 34.036112 -115.588260 230 11025ft 175kts
23-Jun-18 20:14 34.003844 -115.631994 229 11025ft 174kts
23-Jun-18 20:15 33.971422 -115.675620 230 11025ft 174kts
23-Jun-18 20:16 33.939195 -115.719072 230 11024ft 174kts
23-Jun-18 20:17 33.917005 -115.768546 263 11026ft 172kts
23-Jun-18 20:18 33.912964 -115.826235 265 11025ft 173kts
23-Jun-18 20:19 33.909260 -115.884092 265 11020ft 173kts
23-Jun-18 20:20 33.898797 -115.939275 227 10925ft 175kts
23-Jun-18 20:21 33.861111 -115.978743 221 10134ft 181kts
23-Jun-18 20:22 33.822639 -116.018852 222 8977ft 188kts
23-Jun-18 20:23 33.783260 -116.060774 222 7465ft 188kts
23-Jun-18 20:24 33.746855 -116.099491 221 6837ft 160kts
23-Jun-18 20:25 33.710763 -116.137924 222 5358ft 179kts
23-Jun-18 20:26 33.679896 -116.183240 260 3920ft 180kts
23-Jun-18 20:27 33.685260 -116.235565 276 3940ft 146kts
23-Jun-18 20:28 33.696015 -116.281131 281 3960ft 139kts
23-Jun-18 20:29 33.706659 -116.321171 281 3981ft 137kts
23-Jun-18 20:30 33.718748 -116.364958 288 3993ft 139kts
23-Jun-18 20:31 33.738788 -116.406466 296 3717ft 154kts
23-Jun-18 20:32 33.765607 -116.447772 310 2390ft 130kts
23-Jun-18 20:33 33.787890 -116.470667 320 1201ft 102kts
23-Jun-18 20:34 33.811101 -116.491315 321 752ft 103kts
23-Jun-18 20:35 33.828767 -116.507292 268 480ft 15kts
23-Jun-18 20:36 33.828758 -116.507708 269 480ft 0kts
23-Jun-18 20:37 33.831402 -116.511372 324 480ft 13kts

Navigation Log

Ident Type
1. KIFP Airport
2. EED Navaid
3. UBABE Fix
4. CLOWD Fix
5. TRM Navaid
6. KPSP Airport